sensor_id;sensor_type;location;lat;lon;timestamp;temperature;humidity
30572;DHT22;17348;50.948;10.696;2022-12-26T00:00:11;11.20;99.90
30572;DHT22;17348;50.948;10.696;2022-12-26T00:03:13;11.10;99.90
30572;DHT22;17348;50.948;10.696;2022-12-26T00:06:17;11.10;99.90
30572;DHT22;17348;50.948;10.696;2022-12-26T00:09:20;11.10;99.90
30572;DHT22;17348;50.948;10.696;2022-12-26T00:12:24;10.90;99.90
30572;DHT22;17348;50.948;10.696;2022-12-26T00:15:28;10.90;99.90
30572;DHT22;17348;50.948;10.696;2022-12-26T00:18:30;10.90;99.90
30572;DHT22;17348;50.948;10.696;2022-12-26T00:21:33;10.80;99.90
30572;DHT22;17348;50.948;10.696;2022-12-26T00:24:35;10.80;99.90
30572;DHT22;17348;50.948;10.696;2022-12-26T00:27:39;10.80;99.90
30572;DHT22;17348;50.948;10.696;2022-12-26T00:30:41;10.80;99.90
30572;DHT22;17348;50.948;10.696;2022-12-26T00:33:44;10.80;99.90
30572;DHT22;17348;50.948;10.696;2022-12-26T00:36:46;10.80;99.90
30572;DHT22;17348;50.948;10.696;2022-12-26T00:39:48;10.80;99.90
30572;DHT22;17348;50.948;10.696;2022-12-26T00:42:52;10.80;99.90
30572;DHT22;17348;50.948;10.696;2022-12-26T00:45:54;10.90;99.90
30572;DHT22;17348;50.948;10.696;2022-12-26T00:48:57;10.80;99.90
30572;DHT22;17348;50.948;10.696;2022-12-26T00:51:59;10.80;99.90
30572;DHT22;17348;50.948;10.696;2022-12-26T00:55:01;10.80;99.90
30572;DHT22;17348;50.948;10.696;2022-12-26T00:58:05;10.80;99.90
30572;DHT22;17348;50.948;10.696;2022-12-26T01:01:12;10.80;99.90
30572;DHT22;17348;50.948;10.696;2022-12-26T01:04:15;10.80;99.90
30572;DHT22;17348;50.948;10.696;2022-12-26T01:07:17;10.80;99.90
30572;DHT22;17348;50.948;10.696;2022-12-26T01:10:20;10.80;99.90
30572;DHT22;17348;50.948;10.696;2022-12-26T01:13:24;10.80;99.90
30572;DHT22;17348;50.948;10.696;2022-12-26T01:16:26;10.80;99.90
30572;DHT22;17348;50.948;10.696;2022-12-26T01:19:28;10.80;99.90
30572;DHT22;17348;50.948;10.696;2022-12-26T01:22:31;10.80;99.90
30572;DHT22;17348;50.948;10.696;2022-12-26T01:25:33;10.80;99.90
30572;DHT22;17348;50.948;10.696;2022-12-26T01:28:37;10.80;99.90
30572;DHT22;17348;50.948;10.696;2022-12-26T01:31:39;10.80;99.90
30572;DHT22;17348;50.948;10.696;2022-12-26T01:34:41;10.80;99.90
30572;DHT22;17348;50.948;10.696;2022-12-26T01:37:43;10.90;99.90
30572;DHT22;17348;50.948;10.696;2022-12-26T01:40:46;10.90;99.90
30572;DHT22;17348;50.948;10.696;2022-12-26T01:43:53;10.90;99.90
30572;DHT22;17348;50.948;10.696;2022-12-26T01:46:56;10.90;99.90
30572;DHT22;17348;50.948;10.696;2022-12-26T01:49:59;10.80;99.90
30572;DHT22;17348;50.948;10.696;2022-12-26T01:53:04;10.80;99.90
30572;DHT22;17348;50.948;10.696;2022-12-26T01:56:12;10.80;99.90
30572;DHT22;17348;50.948;10.696;2022-12-26T01:59:19;10.80;99.90
30572;DHT22;17348;50.948;10.696;2022-12-26T02:02:22;10.80;99.90
30572;DHT22;17348;50.948;10.696;2022-12-26T02:05:28;10.80;99.90
30572;DHT22;17348;50.948;10.696;2022-12-26T02:08:37;10.90;99.90
30572;DHT22;17348;50.948;10.696;2022-12-26T02:11:42;10.90;99.90
30572;DHT22;17348;50.948;10.696;2022-12-26T02:14:48;10.90;99.90
30572;DHT22;17348;50.948;10.696;2022-12-26T02:17:51;11.00;99.90
30572;DHT22;17348;50.948;10.696;2022-12-26T02:21:02;11.00;99.90
30572;DHT22;17348;50.948;10.696;2022-12-26T02:24:24;11.00;99.90
30572;DHT22;17348;50.948;10.696;2022-12-26T02:27:52;11.00;99.90
30572;DHT22;17348;50.948;10.696;2022-12-26T02:31:05;11.00;99.90
30572;DHT22;17348;50.948;10.696;2022-12-26T02:34:14;11.00;99.90
30572;DHT22;17348;50.948;10.696;2022-12-26T02:37:26;11.00;99.90
30572;DHT22;17348;50.948;10.696;2022-12-26T02:40:40;11.00;99.90
30572;DHT22;17348;50.948;10.696;2022-12-26T02:43:53;11.00;99.90
30572;DHT22;17348;50.948;10.696;2022-12-26T02:47:08;11.00;99.90
30572;DHT22;17348;50.948;10.696;2022-12-26T02:50:15;11.10;99.90
30572;DHT22;17348;50.948;10.696;2022-12-26T02:53:44;11.10;99.90
30572;DHT22;17348;50.948;10.696;2022-12-26T02:57:06;11.00;99.90
30572;DHT22;17348;50.948;10.696;2022-12-26T03:00:27;11.00;99.90
30572;DHT22;17348;50.948;10.696;2022-12-26T03:03:50;11.00;99.90
30572;DHT22;17348;50.948;10.696;2022-12-26T03:07:15;11.00;99.90
30572;DHT22;17348;50.948;10.696;2022-12-26T03:10:37;11.10;99.90
30572;DHT22;17348;50.948;10.696;2022-12-26T03:14:04;11.10;99.90
30572;DHT22;17348;50.948;10.696;2022-12-26T03:17:08;11.10;99.90
30572;DHT22;17348;50.948;10.696;2022-12-26T03:20:26;11.10;99.90
30572;DHT22;17348;50.948;10.696;2022-12-26T03:23:30;11.10;99.90
30572;DHT22;17348;50.948;10.696;2022-12-26T03:26:36;11.10;99.90
30572;DHT22;17348;50.948;10.696;2022-12-26T03:29:41;11.10;99.90
30572;DHT22;17348;50.948;10.696;2022-12-26T03:33:01;11.10;99.90
30572;DHT22;17348;50.948;10.696;2022-12-26T03:36:06;11.10;99.90
30572;DHT22;17348;50.948;10.696;2022-12-26T03:39:19;11.20;99.90
30572;DHT22;17348;50.948;10.696;2022-12-26T03:42:58;11.20;99.90
30572;DHT22;17348;50.948;10.696;2022-12-26T03:46:28;11.20;99.90
30572;DHT22;17348;50.948;10.696;2022-12-26T03:49:54;11.30;99.90
30572;DHT22;17348;50.948;10.696;2022-12-26T03:53:21;11.30;99.90
30572;DHT22;17348;50.948;10.696;2022-12-26T03:56:46;11.30;99.90
30572;DHT22;17348;50.948;10.696;2022-12-26T04:00:21;11.30;99.90
30572;DHT22;17348;50.948;10.696;2022-12-26T04:03:43;11.30;99.90
30572;DHT22;17348;50.948;10.696;2022-12-26T04:07:06;11.30;99.90
30572;DHT22;17348;50.948;10.696;2022-12-26T04:10:32;11.30;99.90
30572;DHT22;17348;50.948;10.696;2022-12-26T04:13:57;11.30;99.90
30572;DHT22;17348;50.948;10.696;2022-12-26T04:17:26;11.20;99.90
30572;DHT22;17348;50.948;10.696;2022-12-26T04:20:50;11.20;99.90
30572;DHT22;17348;50.948;10.696;2022-12-26T04:23:55;11.20;99.90
30572;DHT22;17348;50.948;10.696;2022-12-26T04:27:18;11.20;99.90
30572;DHT22;17348;50.948;10.696;2022-12-26T04:30:42;11.20;99.90
30572;DHT22;17348;50.948;10.696;2022-12-26T04:34:10;11.20;99.90
30572;DHT22;17348;50.948;10.696;2022-12-26T04:37:34;11.20;99.90
30572;DHT22;17348;50.948;10.696;2022-12-26T04:40:59;11.30;99.90
30572;DHT22;17348;50.948;10.696;2022-12-26T04:44:22;11.30;99.90
30572;DHT22;17348;50.948;10.696;2022-12-26T04:47:25;11.30;99.90
30572;DHT22;17348;50.948;10.696;2022-12-26T04:50:27;11.30;99.90
30572;DHT22;17348;50.948;10.696;2022-12-26T04:53:28;11.40;99.90
30572;DHT22;17348;50.948;10.696;2022-12-26T04:56:31;11.40;99.90
30572;DHT22;17348;50.948;10.696;2022-12-26T04:59:34;11.40;99.90
30572;DHT22;17348;50.948;10.696;2022-12-26T05:02:37;11.40;99.90
30572;DHT22;17348;50.948;10.696;2022-12-26T05:05:56;11.40;99.90
30572;DHT22;17348;50.948;10.696;2022-12-26T05:09:18;11.40;99.90
30572;DHT22;17348;50.948;10.696;2022-12-26T05:12:36;11.40;99.90
30572;DHT22;17348;50.948;10.696;2022-12-26T05:15:39;11.30;99.90
30572;DHT22;17348;50.948;10.696;2022-12-26T05:18:55;11.30;99.90
30572;DHT22;17348;50.948;10.696;2022-12-26T05:22:15;11.20;99.90
30572;DHT22;17348;50.948;10.696;2022-12-26T05:25:38;11.20;99.90
30572;DHT22;17348;50.948;10.696;2022-12-26T05:28:59;11.10;99.90
30572;DHT22;17348;50.948;10.696;2022-12-26T05:32:05;11.10;99.90
30572;DHT22;17348;50.948;10.696;2022-12-26T05:35:07;11.00;99.90
30572;DHT22;17348;50.948;10.696;2022-12-26T05:38:09;10.90;99.90
30572;DHT22;17348;50.948;10.696;2022-12-26T05:41:12;10.90;99.90
30572;DHT22;17348;50.948;10.696;2022-12-26T05:44:14;10.90;99.90
30572;DHT22;17348;50.948;10.696;2022-12-26T05:47:18;10.90;99.90
30572;DHT22;17348;50.948;10.696;2022-12-26T05:50:20;10.90;99.90
30572;DHT22;17348;50.948;10.696;2022-12-26T05:53:22;10.80;99.90
30572;DHT22;17348;50.948;10.696;2022-12-26T05:56:25;10.80;99.90
30572;DHT22;17348;50.948;10.696;2022-12-26T05:59:27;10.80;99.90
30572;DHT22;17348;50.948;10.696;2022-12-26T06:02:31;10.90;99.90
30572;DHT22;17348;50.948;10.696;2022-12-26T06:05:33;10.90;99.90
30572;DHT22;17348;50.948;10.696;2022-12-26T06:08:36;11.00;99.90
30572;DHT22;17348;50.948;10.696;2022-12-26T06:11:38;11.10;99.90
30572;DHT22;17348;50.948;10.696;2022-12-26T06:14:40;11.10;99.90
30572;DHT22;17348;50.948;10.696;2022-12-26T06:17:44;11.10;99.90
30572;DHT22;17348;50.948;10.696;2022-12-26T06:20:46;11.20;99.90
30572;DHT22;17348;50.948;10.696;2022-12-26T06:23:49;11.20;99.90
30572;DHT22;17348;50.948;10.696;2022-12-26T06:26:52;11.20;99.90
30572;DHT22;17348;50.948;10.696;2022-12-26T06:29:58;11.20;99.90
30572;DHT22;17348;50.948;10.696;2022-12-26T06:33:01;11.20;99.90
30572;DHT22;17348;50.948;10.696;2022-12-26T06:36:05;11.30;99.90
30572;DHT22;17348;50.948;10.696;2022-12-26T06:39:08;11.30;99.90
30572;DHT22;17348;50.948;10.696;2022-12-26T06:42:10;11.40;99.90
30572;DHT22;17348;50.948;10.696;2022-12-26T06:45:13;11.40;99.90
30572;DHT22;17348;50.948;10.696;2022-12-26T06:48:16;11.40;99.90
30572;DHT22;17348;50.948;10.696;2022-12-26T06:51:20;11.40;99.90
30572;DHT22;17348;50.948;10.696;2022-12-26T06:54:23;11.50;99.90
30572;DHT22;17348;50.948;10.696;2022-12-26T06:57:25;11.50;99.90
30572;DHT22;17348;50.948;10.696;2022-12-26T07:00:28;11.50;99.90
30572;DHT22;17348;50.948;10.696;2022-12-26T07:03:32;11.50;99.90
30572;DHT22;17348;50.948;10.696;2022-12-26T07:06:36;11.50;99.90
30572;DHT22;17348;50.948;10.696;2022-12-26T07:09:38;11.50;99.90
30572;DHT22;17348;50.948;10.696;2022-12-26T07:12:40;11.50;99.90
30572;DHT22;17348;50.948;10.696;2022-12-26T07:15:43;11.60;99.90
30572;DHT22;17348;50.948;10.696;2022-12-26T07:18:47;11.60;99.90
30572;DHT22;17348;50.948;10.696;2022-12-26T07:21:49;11.60;99.90
30572;DHT22;17348;50.948;10.696;2022-12-26T07:24:51;11.70;99.90
30572;DHT22;17348;50.948;10.696;2022-12-26T07:27:54;11.70;99.90
30572;DHT22;17348;50.948;10.696;2022-12-26T07:30:56;11.70;99.90
30572;DHT22;17348;50.948;10.696;2022-12-26T07:34:01;11.80;99.90
30572;DHT22;17348;50.948;10.696;2022-12-26T07:37:04;11.80;99.90
30572;DHT22;17348;50.948;10.696;2022-12-26T07:40:07;11.90;99.90
30572;DHT22;17348;50.948;10.696;2022-12-26T07:43:10;11.90;99.90
30572;DHT22;17348;50.948;10.696;2022-12-26T07:46:12;12.00;99.90
30572;DHT22;17348;50.948;10.696;2022-12-26T07:49:16;12.00;99.90
30572;DHT22;17348;50.948;10.696;2022-12-26T07:52:19;12.10;99.90
30572;DHT22;17348;50.948;10.696;2022-12-26T07:55:22;12.20;99.90
30572;DHT22;17348;50.948;10.696;2022-12-26T07:58:24;12.20;99.90
30572;DHT22;17348;50.948;10.696;2022-12-26T08:01:27;12.20;99.90
30572;DHT22;17348;50.948;10.696;2022-12-26T08:04:31;12.30;99.90
30572;DHT22;17348;50.948;10.696;2022-12-26T08:07:33;12.30;99.90
30572;DHT22;17348;50.948;10.696;2022-12-26T08:10:36;12.20;99.90
30572;DHT22;17348;50.948;10.696;2022-12-26T08:13:38;12.20;99.90
30572;DHT22;17348;50.948;10.696;2022-12-26T08:16:41;12.20;99.90
30572;DHT22;17348;50.948;10.696;2022-12-26T08:19:45;12.20;99.90
30572;DHT22;17348;50.948;10.696;2022-12-26T08:22:47;12.20;99.90
30572;DHT22;17348;50.948;10.696;2022-12-26T08:25:50;12.20;99.90
30572;DHT22;17348;50.948;10.696;2022-12-26T08:28:55;12.10;99.90
30572;DHT22;17348;50.948;10.696;2022-12-26T08:31:57;12.10;99.90
30572;DHT22;17348;50.948;10.696;2022-12-26T08:35:01;12.00;99.90
30572;DHT22;17348;50.948;10.696;2022-12-26T08:38:04;12.00;99.90
30572;DHT22;17348;50.948;10.696;2022-12-26T08:41:07;12.00;99.90
30572;DHT22;17348;50.948;10.696;2022-12-26T08:44:10;11.90;99.90
30572;DHT22;17348;50.948;10.696;2022-12-26T08:47:13;12.00;99.90
30572;DHT22;17348;50.948;10.696;2022-12-26T08:50:17;11.90;99.90
30572;DHT22;17348;50.948;10.696;2022-12-26T08:53:19;11.90;99.90
30572;DHT22;17348;50.948;10.696;2022-12-26T08:56:23;11.90;99.90
30572;DHT22;17348;50.948;10.696;2022-12-26T08:59:26;11.90;99.90
30572;DHT22;17348;50.948;10.696;2022-12-26T09:02:28;11.90;99.90
30572;DHT22;17348;50.948;10.696;2022-12-26T09:05:32;11.80;99.90
30572;DHT22;17348;50.948;10.696;2022-12-26T09:08:35;11.90;99.90
30572;DHT22;17348;50.948;10.696;2022-12-26T09:11:39;11.90;99.90
30572;DHT22;17348;50.948;10.696;2022-12-26T09:14:42;11.90;99.90
30572;DHT22;17348;50.948;10.696;2022-12-26T09:17:44;11.90;99.90
30572;DHT22;17348;50.948;10.696;2022-12-26T09:20:48;11.90;99.90
30572;DHT22;17348;50.948;10.696;2022-12-26T09:23:55;12.00;99.90
30572;DHT22;17348;50.948;10.696;2022-12-26T09:26:58;12.00;99.90
30572;DHT22;17348;50.948;10.696;2022-12-26T09:30:00;12.00;99.90
30572;DHT22;17348;50.948;10.696;2022-12-26T09:33:04;12.10;99.90
30572;DHT22;17348;50.948;10.696;2022-12-26T09:36:11;12.10;99.90
30572;DHT22;17348;50.948;10.696;2022-12-26T09:39:13;12.10;99.90
30572;DHT22;17348;50.948;10.696;2022-12-26T09:42:25;12.20;99.90
30572;DHT22;17348;50.948;10.696;2022-12-26T09:45:45;12.20;99.90
30572;DHT22;17348;50.948;10.696;2022-12-26T09:48:55;12.20;99.90
30572;DHT22;17348;50.948;10.696;2022-12-26T09:52:04;12.20;99.90
30572;DHT22;17348;50.948;10.696;2022-12-26T09:55:31;12.20;99.90
30572;DHT22;17348;50.948;10.696;2022-12-26T09:58:43;12.10;99.90
30572;DHT22;17348;50.948;10.696;2022-12-26T10:01:48;12.00;99.90
30572;DHT22;17348;50.948;10.696;2022-12-26T10:04:51;11.90;99.90
30572;DHT22;17348;50.948;10.696;2022-12-26T10:08:00;11.60;99.90
30572;DHT22;17348;50.948;10.696;2022-12-26T10:11:08;11.30;99.90
30572;DHT22;17348;50.948;10.696;2022-12-26T10:14:27;11.00;99.90
30572;DHT22;17348;50.948;10.696;2022-12-26T10:17:35;10.90;99.90
30572;DHT22;17348;50.948;10.696;2022-12-26T10:20:59;10.70;99.90
30572;DHT22;17348;50.948;10.696;2022-12-26T10:24:11;10.60;99.90
30572;DHT22;17348;50.948;10.696;2022-12-26T10:27:17;10.40;99.90
30572;DHT22;17348;50.948;10.696;2022-12-26T10:30:22;10.30;99.90
30572;DHT22;17348;50.948;10.696;2022-12-26T10:33:32;10.20;99.90
30572;DHT22;17348;50.948;10.696;2022-12-26T10:36:40;10.10;99.90
30572;DHT22;17348;50.948;10.696;2022-12-26T10:39:49;10.00;99.90
30572;DHT22;17348;50.948;10.696;2022-12-26T10:42:54;10.00;99.90
30572;DHT22;17348;50.948;10.696;2022-12-26T10:49:24;10.00;99.90
30572;DHT22;17348;50.948;10.696;2022-12-26T10:52:31;10.00;99.90
30572;DHT22;17348;50.948;10.696;2022-12-26T10:55:35;10.00;99.90
30572;DHT22;17348;50.948;10.696;2022-12-26T10:58:39;10.00;99.90
30572;DHT22;17348;50.948;10.696;2022-12-26T11:01:42;9.90;99.90
30572;DHT22;17348;50.948;10.696;2022-12-26T11:05:02;9.90;99.90
30572;DHT22;17348;50.948;10.696;2022-12-26T11:08:08;9.90;99.90
30572;DHT22;17348;50.948;10.696;2022-12-26T11:11:23;9.90;99.90
30572;DHT22;17348;50.948;10.696;2022-12-26T11:14:30;9.90;99.90
30572;DHT22;17348;50.948;10.696;2022-12-26T11:17:41;9.90;99.90
30572;DHT22;17348;50.948;10.696;2022-12-26T11:20:45;9.90;99.90
30572;DHT22;17348;50.948;10.696;2022-12-26T11:23:49;9.90;99.90
30572;DHT22;17348;50.948;10.696;2022-12-26T11:27:17;10.00;99.90
30572;DHT22;17348;50.948;10.696;2022-12-26T11:30:26;10.00;99.90
30572;DHT22;17348;50.948;10.696;2022-12-26T11:33:31;10.10;99.90
30572;DHT22;17348;50.948;10.696;2022-12-26T11:36:35;10.20;99.90
30572;DHT22;17348;50.948;10.696;2022-12-26T11:39:40;10.30;99.90
30572;DHT22;17348;50.948;10.696;2022-12-26T11:42:48;10.30;99.90
30572;DHT22;17348;50.948;10.696;2022-12-26T11:45:52;10.40;99.90
30572;DHT22;17348;50.948;10.696;2022-12-26T11:48:54;10.40;99.90
30572;DHT22;17348;50.948;10.696;2022-12-26T11:51:58;10.40;99.90
30572;DHT22;17348;50.948;10.696;2022-12-26T11:55:12;10.50;99.90
30572;DHT22;17348;50.948;10.696;2022-12-26T11:58:27;10.50;99.90
30572;DHT22;17348;50.948;10.696;2022-12-26T12:01:30;10.60;99.90
30572;DHT22;17348;50.948;10.696;2022-12-26T12:04:33;10.70;99.90
30572;DHT22;17348;50.948;10.696;2022-12-26T12:08:02;10.70;99.90
30572;DHT22;17348;50.948;10.696;2022-12-26T12:11:20;10.70;99.90
30572;DHT22;17348;50.948;10.696;2022-12-26T12:14:40;10.80;99.90
30572;DHT22;17348;50.948;10.696;2022-12-26T12:17:52;10.80;99.90
30572;DHT22;17348;50.948;10.696;2022-12-26T12:21:07;10.80;99.90
30572;DHT22;17348;50.948;10.696;2022-12-26T12:24:27;10.90;99.90
30572;DHT22;17348;50.948;10.696;2022-12-26T12:27:35;10.90;99.90
30572;DHT22;17348;50.948;10.696;2022-12-26T12:30:43;11.00;99.90
30572;DHT22;17348;50.948;10.696;2022-12-26T12:33:50;11.00;99.90
30572;DHT22;17348;50.948;10.696;2022-12-26T12:37:06;11.00;99.90
30572;DHT22;17348;50.948;10.696;2022-12-26T12:40:28;11.10;99.90
30572;DHT22;17348;50.948;10.696;2022-12-26T12:43:41;11.10;99.90
30572;DHT22;17348;50.948;10.696;2022-12-26T12:46:54;11.10;99.90
30572;DHT22;17348;50.948;10.696;2022-12-26T12:50:06;11.10;99.90
30572;DHT22;17348;50.948;10.696;2022-12-26T12:53:24;11.20;99.90
30572;DHT22;17348;50.948;10.696;2022-12-26T12:56:37;11.20;99.90
30572;DHT22;17348;50.948;10.696;2022-12-26T12:59:50;11.30;99.90
30572;DHT22;17348;50.948;10.696;2022-12-26T13:03:00;11.30;99.90
30572;DHT22;17348;50.948;10.696;2022-12-26T13:06:07;11.20;99.90
30572;DHT22;17348;50.948;10.696;2022-12-26T13:09:14;11.20;99.90
30572;DHT22;17348;50.948;10.696;2022-12-26T13:12:20;11.30;99.90
30572;DHT22;17348;50.948;10.696;2022-12-26T13:15:31;11.30;99.90
30572;DHT22;17348;50.948;10.696;2022-12-26T13:18:43;11.30;99.90
30572;DHT22;17348;50.948;10.696;2022-12-26T13:21:49;11.40;99.90
30572;DHT22;17348;50.948;10.696;2022-12-26T13:24:57;11.40;99.90
30572;DHT22;17348;50.948;10.696;2022-12-26T13:28:03;11.40;99.90
30572;DHT22;17348;50.948;10.696;2022-12-26T13:31:09;11.30;99.90
30572;DHT22;17348;50.948;10.696;2022-12-26T13:34:16;11.30;99.90
30572;DHT22;17348;50.948;10.696;2022-12-26T13:37:56;11.40;99.90
30572;DHT22;17348;50.948;10.696;2022-12-26T13:41:01;11.30;99.90
30572;DHT22;17348;50.948;10.696;2022-12-26T13:44:24;11.30;99.90
30572;DHT22;17348;50.948;10.696;2022-12-26T13:47:33;11.30;99.90
30572;DHT22;17348;50.948;10.696;2022-12-26T13:50:47;11.30;99.90
30572;DHT22;17348;50.948;10.696;2022-12-26T13:53:58;11.30;99.90
30572;DHT22;17348;50.948;10.696;2022-12-26T13:57:27;11.30;99.90
30572;DHT22;17348;50.948;10.696;2022-12-26T14:00:41;11.20;99.90
30572;DHT22;17348;50.948;10.696;2022-12-26T14:03:54;11.20;99.90
30572;DHT22;17348;50.948;10.696;2022-12-26T14:07:20;11.20;99.90
30572;DHT22;17348;50.948;10.696;2022-12-26T14:10:28;11.20;99.90
30572;DHT22;17348;50.948;10.696;2022-12-26T14:13:59;11.10;99.90
30572;DHT22;17348;50.948;10.696;2022-12-26T14:17:12;11.10;99.90
30572;DHT22;17348;50.948;10.696;2022-12-26T14:20:25;11.10;99.90
30572;DHT22;17348;50.948;10.696;2022-12-26T14:23:41;11.10;99.90
30572;DHT22;17348;50.948;10.696;2022-12-26T14:26:50;11.00;99.90
30572;DHT22;17348;50.948;10.696;2022-12-26T14:30:03;11.00;99.90
30572;DHT22;17348;50.948;10.696;2022-12-26T14:33:21;11.00;99.90
30572;DHT22;17348;50.948;10.696;2022-12-26T14:36:35;11.00;99.90
30572;DHT22;17348;50.948;10.696;2022-12-26T14:39:45;11.00;99.90
30572;DHT22;17348;50.948;10.696;2022-12-26T14:43:27;10.90;99.90
30572;DHT22;17348;50.948;10.696;2022-12-26T14:46:59;10.90;99.90
30572;DHT22;17348;50.948;10.696;2022-12-26T14:53:37;10.80;99.90
30572;DHT22;17348;50.948;10.696;2022-12-26T14:56:42;10.80;99.90
30572;DHT22;17348;50.948;10.696;2022-12-26T15:00:09;10.80;99.90
30572;DHT22;17348;50.948;10.696;2022-12-26T15:03:39;10.70;99.90
30572;DHT22;17348;50.948;10.696;2022-12-26T15:07:23;10.70;99.90
30572;DHT22;17348;50.948;10.696;2022-12-26T15:10:49;10.60;99.90
30572;DHT22;17348;50.948;10.696;2022-12-26T15:17:35;10.60;99.90
30572;DHT22;17348;50.948;10.696;2022-12-26T15:20:55;10.50;99.90
30572;DHT22;17348;50.948;10.696;2022-12-26T15:28:25;10.40;99.90
30572;DHT22;17348;50.948;10.696;2022-12-26T15:31:46;10.40;99.90
30572;DHT22;17348;50.948;10.696;2022-12-26T15:35:09;10.40;99.90
30572;DHT22;17348;50.948;10.696;2022-12-26T15:38:20;10.30;99.90
30572;DHT22;17348;50.948;10.696;2022-12-26T15:41:33;10.40;99.90
30572;DHT22;17348;50.948;10.696;2022-12-26T15:44:42;10.40;99.90
30572;DHT22;17348;50.948;10.696;2022-12-26T15:47:53;10.40;99.90
30572;DHT22;17348;50.948;10.696;2022-12-26T15:51:03;10.30;99.90
30572;DHT22;17348;50.948;10.696;2022-12-26T15:54:18;10.40;99.90
30572;DHT22;17348;50.948;10.696;2022-12-26T15:57:29;10.40;99.90
30572;DHT22;17348;50.948;10.696;2022-12-26T16:00:37;10.30;99.90
30572;DHT22;17348;50.948;10.696;2022-12-26T16:03:45;10.30;99.90
30572;DHT22;17348;50.948;10.696;2022-12-26T16:07:05;10.30;99.90
30572;DHT22;17348;50.948;10.696;2022-12-26T16:10:27;10.40;99.90
30572;DHT22;17348;50.948;10.696;2022-12-26T16:13:31;10.40;99.90
30572;DHT22;17348;50.948;10.696;2022-12-26T16:16:36;10.40;99.90
30572;DHT22;17348;50.948;10.696;2022-12-26T16:19:41;10.30;99.90
30572;DHT22;17348;50.948;10.696;2022-12-26T16:22:44;10.30;99.90
30572;DHT22;17348;50.948;10.696;2022-12-26T16:25:47;10.20;99.90
30572;DHT22;17348;50.948;10.696;2022-12-26T16:28:49;10.20;99.90
30572;DHT22;17348;50.948;10.696;2022-12-26T16:32:01;10.20;99.90
30572;DHT22;17348;50.948;10.696;2022-12-26T16:35:14;10.10;99.90
30572;DHT22;17348;50.948;10.696;2022-12-26T16:38:20;10.00;99.90
30572;DHT22;17348;50.948;10.696;2022-12-26T16:41:25;10.00;99.90
30572;DHT22;17348;50.948;10.696;2022-12-26T16:44:31;9.90;99.90
30572;DHT22;17348;50.948;10.696;2022-12-26T16:47:35;9.90;99.90
30572;DHT22;17348;50.948;10.696;2022-12-26T16:50:47;9.90;99.90
30572;DHT22;17348;50.948;10.696;2022-12-26T16:53:50;9.80;99.90
30572;DHT22;17348;50.948;10.696;2022-12-26T16:57:00;9.80;99.90
30572;DHT22;17348;50.948;10.696;2022-12-26T17:00:04;9.80;99.90
30572;DHT22;17348;50.948;10.696;2022-12-26T17:03:09;9.80;99.90
30572;DHT22;17348;50.948;10.696;2022-12-26T17:06:23;9.70;99.90
30572;DHT22;17348;50.948;10.696;2022-12-26T17:09:29;9.70;99.90
30572;DHT22;17348;50.948;10.696;2022-12-26T17:12:34;9.70;99.90
30572;DHT22;17348;50.948;10.696;2022-12-26T17:15:48;9.70;99.90
30572;DHT22;17348;50.948;10.696;2022-12-26T17:18:51;9.70;99.90
30572;DHT22;17348;50.948;10.696;2022-12-26T17:22:25;9.70;99.90
30572;DHT22;17348;50.948;10.696;2022-12-26T17:25:30;9.70;99.90
30572;DHT22;17348;50.948;10.696;2022-12-26T17:28:36;9.70;99.90
30572;DHT22;17348;50.948;10.696;2022-12-26T17:31:40;9.70;99.90
30572;DHT22;17348;50.948;10.696;2022-12-26T17:34:43;9.60;99.90
30572;DHT22;17348;50.948;10.696;2022-12-26T17:37:49;9.50;99.90
30572;DHT22;17348;50.948;10.696;2022-12-26T17:40:53;9.30;99.90
30572;DHT22;17348;50.948;10.696;2022-12-26T17:43:56;9.00;99.90
30572;DHT22;17348;50.948;10.696;2022-12-26T17:47:02;8.80;99.90
30572;DHT22;17348;50.948;10.696;2022-12-26T17:50:07;8.60;99.90
30572;DHT22;17348;50.948;10.696;2022-12-26T17:53:21;8.50;99.90
30572;DHT22;17348;50.948;10.696;2022-12-26T17:56:24;8.30;99.90
30572;DHT22;17348;50.948;10.696;2022-12-26T17:59:27;8.30;99.90
30572;DHT22;17348;50.948;10.696;2022-12-26T18:02:29;8.20;99.90
30572;DHT22;17348;50.948;10.696;2022-12-26T18:05:32;8.20;99.90
30572;DHT22;17348;50.948;10.696;2022-12-26T18:08:38;8.10;99.90
30572;DHT22;17348;50.948;10.696;2022-12-26T18:11:41;8.10;99.90
30572;DHT22;17348;50.948;10.696;2022-12-26T18:14:43;8.10;99.90
30572;DHT22;17348;50.948;10.696;2022-12-26T18:17:47;8.20;99.90
30572;DHT22;17348;50.948;10.696;2022-12-26T18:20:50;8.20;99.90
30572;DHT22;17348;50.948;10.696;2022-12-26T18:23:54;8.10;99.90
30572;DHT22;17348;50.948;10.696;2022-12-26T18:26:56;8.10;99.90
30572;DHT22;17348;50.948;10.696;2022-12-26T18:29:59;8.10;99.90
30572;DHT22;17348;50.948;10.696;2022-12-26T18:33:01;8.10;99.90
30572;DHT22;17348;50.948;10.696;2022-12-26T18:36:04;8.10;99.90
30572;DHT22;17348;50.948;10.696;2022-12-26T18:39:10;8.10;99.90
30572;DHT22;17348;50.948;10.696;2022-12-26T18:42:15;8.10;99.90
30572;DHT22;17348;50.948;10.696;2022-12-26T18:45:18;8.00;99.90
30572;DHT22;17348;50.948;10.696;2022-12-26T18:48:20;8.00;99.90
30572;DHT22;17348;50.948;10.696;2022-12-26T18:51:23;8.00;99.90
30572;DHT22;17348;50.948;10.696;2022-12-26T18:54:27;7.90;99.90
30572;DHT22;17348;50.948;10.696;2022-12-26T18:57:30;7.90;99.90
30572;DHT22;17348;50.948;10.696;2022-12-26T19:00:32;7.90;99.90
30572;DHT22;17348;50.948;10.696;2022-12-26T19:03:35;7.90;99.90
30572;DHT22;17348;50.948;10.696;2022-12-26T19:06:38;7.90;99.90
30572;DHT22;17348;50.948;10.696;2022-12-26T19:09:43;7.90;99.90
30572;DHT22;17348;50.948;10.696;2022-12-26T19:12:46;8.00;99.90
30572;DHT22;17348;50.948;10.696;2022-12-26T19:15:49;7.90;99.90
30572;DHT22;17348;50.948;10.696;2022-12-26T19:18:51;8.00;99.90
30572;DHT22;17348;50.948;10.696;2022-12-26T19:21:54;8.00;99.90
30572;DHT22;17348;50.948;10.696;2022-12-26T19:24:58;8.00;99.90
30572;DHT22;17348;50.948;10.696;2022-12-26T19:28:00;8.00;99.90
30572;DHT22;17348;50.948;10.696;2022-12-26T19:31:07;8.00;99.90
30572;DHT22;17348;50.948;10.696;2022-12-26T19:34:09;8.00;99.90
30572;DHT22;17348;50.948;10.696;2022-12-26T19:37:13;8.10;99.90
30572;DHT22;17348;50.948;10.696;2022-12-26T19:40:17;8.00;99.90
30572;DHT22;17348;50.948;10.696;2022-12-26T19:43:19;8.10;99.90
30572;DHT22;17348;50.948;10.696;2022-12-26T19:46:21;8.10;99.90
30572;DHT22;17348;50.948;10.696;2022-12-26T19:49:24;8.00;99.90
30572;DHT22;17348;50.948;10.696;2022-12-26T19:52:26;8.00;99.90